createdAt,value
2019-05-18T00:02:08.513Z,13.60
2019-05-18T00:04:37.937Z,13.60
2019-05-18T00:07:07.264Z,13.50
2019-05-18T00:09:36.610Z,13.50
2019-05-18T00:12:05.936Z,13.50
2019-05-18T00:14:35.344Z,13.40
2019-05-18T00:17:07.897Z,13.50
2019-05-18T00:19:35.693Z,13.40
2019-05-18T00:22:04.961Z,13.40
2019-05-18T00:24:34.414Z,13.40
2019-05-18T00:27:03.726Z,13.40
2019-05-18T00:29:33.100Z,13.30
2019-05-18T00:32:02.398Z,13.30
2019-05-18T00:34:31.880Z,13.20
2019-05-18T00:37:01.152Z,13.30
2019-05-18T00:39:30.462Z,13.20
2019-05-18T00:41:59.848Z,13.20
2019-05-18T00:44:29.181Z,13.20
2019-05-18T00:46:58.469Z,13.10
2019-05-18T00:49:27.948Z,13.10
2019-05-18T00:51:57.219Z,13.20
2019-05-18T00:54:26.501Z,13.10
2019-05-18T00:56:55.884Z,13.10
2019-05-18T00:59:25.173Z,13.10
2019-05-18T01:01:54.449Z,13.10
2019-05-18T01:04:23.774Z,13.00
2019-05-18T01:06:53.756Z,13.00
2019-05-18T01:09:23.069Z,13.00
2019-05-18T01:11:52.428Z,12.90
2019-05-18T01:14:21.721Z,12.90
2019-05-18T01:16:51.094Z,12.80
2019-05-18T01:19:20.448Z,12.80
2019-05-18T01:21:49.733Z,12.70
2019-05-18T01:24:19.012Z,12.70
2019-05-18T01:26:48.323Z,12.60
2019-05-18T01:29:17.599Z,12.60
2019-05-18T01:31:46.873Z,12.50
2019-05-18T01:34:16.330Z,12.40
2019-05-18T01:36:45.639Z,12.40
2019-05-18T01:39:14.905Z,12.30
2019-05-18T01:41:44.226Z,12.30
2019-05-18T01:44:13.497Z,12.20
2019-05-18T01:46:42.901Z,12.20
2019-05-18T01:49:12.244Z,12.10
2019-05-18T01:51:42.429Z,12.10
2019-05-18T01:54:12.030Z,12.00
2019-05-18T01:56:41.731Z,12.00
2019-05-18T01:59:11.250Z,12.00
2019-05-18T02:01:40.519Z,11.90
2019-05-18T02:04:09.877Z,11.90
2019-05-18T02:06:39.138Z,11.80
2019-05-18T02:09:09.407Z,11.80
2019-05-18T02:11:38.721Z,11.70
2019-05-18T02:14:08.013Z,11.70
2019-05-18T02:16:37.338Z,11.60
2019-05-18T02:19:06.646Z,11.60
2019-05-18T02:21:35.905Z,11.50
2019-05-18T02:24:05.326Z,11.50
2019-05-18T02:26:34.688Z,11.50
2019-05-18T02:29:04.163Z,11.50
2019-05-18T02:31:33.514Z,11.40
2019-05-18T02:34:02.867Z,11.40
2019-05-18T02:36:32.171Z,11.30
2019-05-18T02:39:01.470Z,11.30
2019-05-18T02:41:30.798Z,11.30
2019-05-18T02:44:00.136Z,11.20
2019-05-18T02:46:29.414Z,11.20
2019-05-18T02:48:58.843Z,11.20
2019-05-18T02:51:28.121Z,11.20
2019-05-18T02:53:57.398Z,11.10
2019-05-18T02:56:26.689Z,11.10
2019-05-18T02:58:55.953Z,11.10
2019-05-18T03:01:25.419Z,11.10
2019-05-18T03:03:54.895Z,11.10
2019-05-18T03:06:24.235Z,11.10
2019-05-18T03:08:53.532Z,11.00
2019-05-18T03:11:22.871Z,11.00
2019-05-18T03:13:52.171Z,10.90
2019-05-18T03:16:21.644Z,11.00
2019-05-18T03:19:06.912Z,10.90
2019-05-18T03:21:22.067Z,10.90
2019-05-18T03:23:51.418Z,10.90
2019-05-18T03:26:20.714Z,10.90
2019-05-18T03:28:50.082Z,10.90
2019-05-18T03:31:19.355Z,10.90
2019-05-18T03:33:48.667Z,10.90
2019-05-18T03:36:18.323Z,10.80
2019-05-18T03:38:47.585Z,10.80
2019-05-18T03:41:17.106Z,10.80
2019-05-18T03:43:46.410Z,10.80
2019-05-18T03:46:15.695Z,10.80
2019-05-18T03:48:45.017Z,10.80
2019-05-18T03:51:14.470Z,10.80
2019-05-18T03:53:43.781Z,10.80
2019-05-18T03:56:13.139Z,10.80
2019-05-18T03:58:42.594Z,10.80
2019-05-18T04:01:11.942Z,10.80
2019-05-18T04:03:41.327Z,10.90
2019-05-18T04:06:10.610Z,10.80
2019-05-18T04:08:39.890Z,10.80
2019-05-18T04:11:12.062Z,10.80
2019-05-18T04:13:41.383Z,10.90
2019-05-18T04:16:10.666Z,10.90
2019-05-18T04:18:40.015Z,10.90
2019-05-18T04:21:09.383Z,11.00
2019-05-18T04:23:38.660Z,11.00
2019-05-18T04:26:07.965Z,11.10
2019-05-18T04:28:37.235Z,11.10
2019-05-18T04:31:06.499Z,11.10
2019-05-18T04:33:35.811Z,11.20
2019-05-18T04:36:05.172Z,11.20
2019-05-18T04:38:34.548Z,11.30
2019-05-18T04:41:03.929Z,11.30
2019-05-18T04:43:33.201Z,11.40
2019-05-18T04:46:02.477Z,11.40
2019-05-18T04:48:31.834Z,11.50
2019-05-18T04:51:01.106Z,11.50
2019-05-18T04:53:30.417Z,11.60
2019-05-18T04:55:59.981Z,11.60
2019-05-18T04:58:29.284Z,11.70
2019-05-18T05:00:58.562Z,11.70
2019-05-18T05:03:27.875Z,11.70
2019-05-18T05:05:57.137Z,11.80
2019-05-18T05:08:26.733Z,11.80
2019-05-18T05:10:56.055Z,11.90
2019-05-18T05:13:25.343Z,11.90
2019-05-18T05:15:54.614Z,12.00
2019-05-18T05:18:23.915Z,12.10
2019-05-18T05:20:53.215Z,12.10
2019-05-18T05:23:22.513Z,12.20
2019-05-18T05:25:51.831Z,12.30
2019-05-18T05:28:21.103Z,12.30
2019-05-18T05:30:50.388Z,12.40
2019-05-18T05:33:19.718Z,12.50
2019-05-18T05:35:49.036Z,12.60
2019-05-18T05:38:18.316Z,12.60
2019-05-18T05:40:47.628Z,12.70
2019-05-18T05:43:16.921Z,12.70
2019-05-18T05:45:46.200Z,12.80
2019-05-18T05:48:15.552Z,12.90
2019-05-18T05:50:45.177Z,12.90
2019-05-18T05:53:14.446Z,13.00
2019-05-18T05:55:44.115Z,13.10
2019-05-18T05:58:13.463Z,13.10
2019-05-18T06:00:42.751Z,13.20
2019-05-18T06:03:12.121Z,13.30
2019-05-18T06:05:41.390Z,13.40
2019-05-18T06:08:10.650Z,13.50
2019-05-18T06:10:40.079Z,13.60
2019-05-18T06:13:09.394Z,13.60
2019-05-18T06:15:38.688Z,13.70
2019-05-18T06:18:08.043Z,13.70
2019-05-18T06:20:50.458Z,13.80
2019-05-18T06:23:08.372Z,13.90
2019-05-18T06:25:37.693Z,14.00
2019-05-18T06:28:07.041Z,14.10
2019-05-18T06:30:36.390Z,14.10
2019-05-18T06:33:05.690Z,14.20
2019-05-18T06:35:35.095Z,14.20
2019-05-18T06:38:04.388Z,14.30
2019-05-18T06:40:33.742Z,14.30
2019-05-18T06:43:03.006Z,14.40
2019-05-18T06:45:32.274Z,14.40
2019-05-18T06:48:01.558Z,14.50
2019-05-18T06:50:31.354Z,14.60
2019-05-18T06:53:00.686Z,14.70
2019-05-18T06:55:29.987Z,14.80
2019-05-18T06:58:00.389Z,14.90
2019-05-18T07:00:29.762Z,15.00
2019-05-18T07:02:59.102Z,15.10
2019-05-18T07:05:28.507Z,15.20
2019-05-18T07:07:57.826Z,15.30
2019-05-18T07:10:27.161Z,15.40
2019-05-18T07:12:56.441Z,15.50
2019-05-18T07:15:25.769Z,15.50
2019-05-18T07:17:55.097Z,15.60
2019-05-18T07:20:24.457Z,15.70
2019-05-18T07:22:53.741Z,15.80
2019-05-18T07:25:23.110Z,15.90
2019-05-18T07:27:52.382Z,16.00
2019-05-18T07:30:21.659Z,16.00
2019-05-18T07:32:51.006Z,16.00
2019-05-18T07:35:20.586Z,16.00
2019-05-18T07:37:49.942Z,16.10
2019-05-18T07:40:19.621Z,16.10
2019-05-18T07:42:49.282Z,16.20
2019-05-18T07:45:19.117Z,16.20
2019-05-18T07:47:48.428Z,16.30
2019-05-18T07:50:17.814Z,16.40
2019-05-18T07:52:47.159Z,16.40
2019-05-18T07:55:16.481Z,16.40
2019-05-18T07:57:45.784Z,16.40
2019-05-18T08:00:15.985Z,16.50
2019-05-18T08:02:45.377Z,16.60
2019-05-18T08:05:14.758Z,16.70
2019-05-18T08:07:44.054Z,16.80
2019-05-18T08:10:13.946Z,16.90
2019-05-18T08:12:43.227Z,16.90
2019-05-18T08:15:13.006Z,17.00
2019-05-18T08:17:42.306Z,17.10
2019-05-18T08:20:12.106Z,17.10
2019-05-18T08:22:41.449Z,17.10
2019-05-18T08:25:10.954Z,17.20
2019-05-18T08:27:40.224Z,17.30
2019-05-18T08:30:09.901Z,17.40
2019-05-18T08:32:39.293Z,17.50
2019-05-18T08:35:08.886Z,17.60
2019-05-18T08:37:38.231Z,17.80
2019-05-18T08:40:08.095Z,17.90
2019-05-18T08:42:37.795Z,18.00
2019-05-18T08:45:07.268Z,18.00
2019-05-18T08:47:36.638Z,18.10
2019-05-18T08:50:06.106Z,18.10
2019-05-18T08:52:35.394Z,18.10
2019-05-18T08:55:04.758Z,18.20
2019-05-18T08:57:34.029Z,18.40
2019-05-18T09:00:03.410Z,18.50
2019-05-18T09:02:32.823Z,18.60
2019-05-18T09:05:04.755Z,18.70
2019-05-18T09:07:33.233Z,18.90
2019-05-18T09:10:02.558Z,19.00
2019-05-18T09:12:31.888Z,19.10
2019-05-18T09:15:20.246Z,19.20
2019-05-18T09:17:49.549Z,19.30
2019-05-18T09:20:20.289Z,19.40
2019-05-18T09:22:49.635Z,19.50
2019-05-18T09:25:18.991Z,19.70
2019-05-18T09:27:48.368Z,19.70
2019-05-18T09:30:18.059Z,19.80
2019-05-18T09:32:47.369Z,20.00
2019-05-18T09:35:17.643Z,20.10
2019-05-18T09:37:47.270Z,20.20
2019-05-18T09:40:16.870Z,20.30
2019-05-18T09:42:46.172Z,20.40
2019-05-18T09:45:16.032Z,20.40
2019-05-18T09:47:45.351Z,20.40
2019-05-18T09:50:14.822Z,20.50
2019-05-18T09:52:46.007Z,20.50
2019-05-18T09:55:15.976Z,20.60
2019-05-18T09:57:45.311Z,20.70
2019-05-18T10:00:15.242Z,20.70
2019-05-18T10:02:44.617Z,20.80
2019-05-18T10:05:14.239Z,20.80
2019-05-18T10:07:43.554Z,20.90
2019-05-18T10:10:13.719Z,21.00
2019-05-18T10:12:43.046Z,21.10
2019-05-18T10:15:12.554Z,21.10
2019-05-18T10:17:41.823Z,21.20
2019-05-18T10:20:11.658Z,21.30
2019-05-18T10:22:53.380Z,21.40
2019-05-18T10:25:12.454Z,21.50
2019-05-18T10:27:41.729Z,21.50
2019-05-18T10:30:11.777Z,21.50
2019-05-18T10:32:41.129Z,21.60
2019-05-18T10:35:10.795Z,21.70
2019-05-18T10:37:40.163Z,21.70
2019-05-18T10:40:10.053Z,21.80
2019-05-18T10:42:39.427Z,21.90
2019-05-18T10:45:09.808Z,22.00
2019-05-18T10:47:39.092Z,22.00
2019-05-18T10:50:09.029Z,22.20
2019-05-18T10:52:38.360Z,22.20
2019-05-18T10:55:08.374Z,22.30
2019-05-18T10:57:37.681Z,22.40
2019-05-18T11:00:07.739Z,22.50
2019-05-18T11:02:37.136Z,22.60
2019-05-18T11:05:07.026Z,22.80
2019-05-18T11:07:46.788Z,22.90
2019-05-18T11:10:17.704Z,23.00
2019-05-18T11:12:47.321Z,23.10
2019-05-18T11:15:16.937Z,23.10
2019-05-18T11:17:46.294Z,23.20
2019-05-18T11:20:16.961Z,23.30
2019-05-18T11:22:46.275Z,23.30
2019-05-18T11:25:16.066Z,23.30
2019-05-18T11:27:45.442Z,23.30
2019-05-18T11:30:15.242Z,23.30
2019-05-18T11:32:46.303Z,23.30
2019-05-18T11:35:16.913Z,23.20
2019-05-18T11:37:46.220Z,23.20
2019-05-18T11:40:15.685Z,23.10
2019-05-18T11:42:44.959Z,23.00
2019-05-18T11:45:16.455Z,23.00
2019-05-18T11:47:45.871Z,23.10
2019-05-18T11:50:15.617Z,23.10
2019-05-18T11:52:45.030Z,23.20
2019-05-18T11:55:14.605Z,23.40
2019-05-18T11:57:43.917Z,23.50
2019-05-18T12:00:16.492Z,23.60
2019-05-18T12:02:45.798Z,23.70
2019-05-18T12:05:15.348Z,23.80
2019-05-18T12:07:44.754Z,23.90
2019-05-18T12:10:14.554Z,24.10
2019-05-18T12:12:43.903Z,24.30
2019-05-18T12:15:13.834Z,24.50
2019-05-18T12:17:43.132Z,24.40
2019-05-18T12:20:14.109Z,24.30
2019-05-18T12:22:43.424Z,24.30
2019-05-18T12:25:12.974Z,24.50
2019-05-18T12:27:42.310Z,24.70
2019-05-18T12:30:12.479Z,24.80
2019-05-18T12:32:41.859Z,24.70
2019-05-18T12:35:11.702Z,24.70
2019-05-18T12:37:41.049Z,24.80
2019-05-18T12:40:13.476Z,24.90
2019-05-18T12:42:42.800Z,25.00
2019-05-18T12:45:12.720Z,25.10
2019-05-18T12:47:42.002Z,25.30
2019-05-18T12:50:11.593Z,25.40
2019-05-18T12:52:40.966Z,25.60
2019-05-18T12:55:10.669Z,25.70
2019-05-18T12:57:39.969Z,25.90
2019-05-18T13:00:11.242Z,26.10
2019-05-18T13:02:40.517Z,26.20
2019-05-18T13:05:11.474Z,26.20
2019-05-18T13:07:40.782Z,26.20
2019-05-18T13:10:11.058Z,26.30
2019-05-18T13:12:40.396Z,26.40
2019-05-18T13:15:10.512Z,26.60
2019-05-18T13:17:39.901Z,26.70
2019-05-18T13:20:10.511Z,26.90
2019-05-18T13:22:39.843Z,26.90
2019-05-18T13:25:10.332Z,27.00
2019-05-18T13:27:40.238Z,27.10
2019-05-18T13:30:10.574Z,27.10
2019-05-18T13:32:39.966Z,27.30
2019-05-18T13:35:11.459Z,27.50
2019-05-18T13:37:40.766Z,27.70
2019-05-18T13:40:10.881Z,28.00
2019-05-18T13:42:40.202Z,28.00
2019-05-18T13:45:10.685Z,28.10
2019-05-18T13:47:39.989Z,28.10
2019-05-18T13:50:10.888Z,28.00
2019-05-18T13:52:40.182Z,28.10
2019-05-18T13:55:10.021Z,28.10
2019-05-18T13:57:39.417Z,28.00
2019-05-18T14:00:09.593Z,27.70
2019-05-18T14:02:38.922Z,27.50
2019-05-18T14:05:08.487Z,27.50
2019-05-18T14:07:37.767Z,27.60
2019-05-18T14:10:07.599Z,27.70
2019-05-18T14:12:36.948Z,27.80
2019-05-18T14:15:06.597Z,27.70
2019-05-18T14:17:35.971Z,27.60
2019-05-18T14:20:05.337Z,27.60
2019-05-18T14:22:34.607Z,27.60
2019-05-18T14:25:18.344Z,27.70
2019-05-18T14:27:35.429Z,27.90
2019-05-18T14:30:06.451Z,28.10
2019-05-18T14:32:35.809Z,28.30
2019-05-18T14:35:05.186Z,28.60
2019-05-18T14:37:34.494Z,28.60
2019-05-18T14:40:03.791Z,28.30
2019-05-18T14:42:33.099Z,27.90
2019-05-18T14:45:02.416Z,27.90
2019-05-18T14:47:31.753Z,27.90
2019-05-18T14:50:01.077Z,28.10
2019-05-18T14:52:30.437Z,28.50
2019-05-18T14:54:59.721Z,28.50
2019-05-18T14:57:29.106Z,28.20
2019-05-18T15:00:02.074Z,27.80
2019-05-18T15:02:29.413Z,27.50
2019-05-18T15:04:58.742Z,27.20
2019-05-18T15:07:28.011Z,27.40
2019-05-18T15:09:57.357Z,27.50
2019-05-18T15:12:26.705Z,27.50
2019-05-18T15:14:55.966Z,27.30
2019-05-18T15:17:25.249Z,27.10
2019-05-18T15:19:54.534Z,26.70
2019-05-18T15:22:23.889Z,26.40
2019-05-18T15:24:53.166Z,26.10
2019-05-18T15:27:22.552Z,25.80
2019-05-18T15:29:51.893Z,25.60
2019-05-18T15:32:21.189Z,25.40
2019-05-18T15:34:50.637Z,25.30
2019-05-18T15:37:20.125Z,25.10
2019-05-18T15:39:49.484Z,24.90
2019-05-18T15:42:18.762Z,24.80
2019-05-18T15:44:48.153Z,25.10
2019-05-18T15:47:17.470Z,25.80
2019-05-18T15:49:46.754Z,26.60
2019-05-18T15:52:16.030Z,27.10
2019-05-18T15:54:45.452Z,27.30
2019-05-18T15:57:14.779Z,27.20
2019-05-18T15:59:44.125Z,26.90
2019-05-18T16:02:13.470Z,26.80
2019-05-18T16:04:42.747Z,26.70
2019-05-18T16:07:12.048Z,26.60
2019-05-18T16:09:41.519Z,26.50
2019-05-18T16:12:10.890Z,26.30
2019-05-18T16:14:40.381Z,26.10
2019-05-18T16:17:09.714Z,26.00
2019-05-18T16:19:39.073Z,25.90
2019-05-18T16:22:08.371Z,26.00
2019-05-18T16:24:37.677Z,26.20
2019-05-18T16:27:06.954Z,26.30
2019-05-18T16:29:36.439Z,26.60
2019-05-18T16:32:05.919Z,27.00
2019-05-18T16:34:35.215Z,27.20
2019-05-18T16:37:04.578Z,27.30
2019-05-18T16:39:33.878Z,27.10
2019-05-18T16:42:03.216Z,26.80
2019-05-18T16:44:32.565Z,26.30
2019-05-18T16:47:01.871Z,25.90
2019-05-18T16:49:31.155Z,25.60
2019-05-18T16:52:00.511Z,25.20
2019-05-18T16:54:29.898Z,24.90
2019-05-18T16:56:59.221Z,24.60
2019-05-18T16:59:28.494Z,24.30
2019-05-18T17:01:57.832Z,24.10
2019-05-18T17:04:27.285Z,23.90
2019-05-18T17:06:56.559Z,23.70
2019-05-18T17:09:25.842Z,23.40
2019-05-18T17:11:55.182Z,23.20
2019-05-18T17:14:24.596Z,23.10
2019-05-18T17:16:53.970Z,22.90
2019-05-18T17:19:23.342Z,22.70
2019-05-18T17:21:52.633Z,22.60
2019-05-18T17:24:21.909Z,22.40
2019-05-18T17:26:53.249Z,22.30
2019-05-18T17:29:22.253Z,22.10
2019-05-18T17:31:51.554Z,22.00
2019-05-18T17:34:20.897Z,21.80
2019-05-18T17:36:52.588Z,21.70
2019-05-18T17:39:21.258Z,21.60
2019-05-18T17:41:50.629Z,21.50
2019-05-18T17:44:19.970Z,21.40
2019-05-18T17:46:50.061Z,21.30
2019-05-18T17:49:26.875Z,21.30
2019-05-18T17:51:50.411Z,21.20
2019-05-18T17:54:20.301Z,21.10
2019-05-18T17:56:49.602Z,21.00
2019-05-18T17:59:18.969Z,21.00
2019-05-18T18:01:48.247Z,20.90
2019-05-18T18:04:17.589Z,20.80
2019-05-18T18:06:46.892Z,20.70
2019-05-18T18:09:16.175Z,20.70
2019-05-18T18:11:45.562Z,20.60
2019-05-18T18:14:14.961Z,20.50
2019-05-18T18:16:44.229Z,20.50
2019-05-18T18:19:13.554Z,20.40
2019-05-18T18:21:42.910Z,20.40
2019-05-18T18:24:12.347Z,20.30
2019-05-18T18:26:41.714Z,20.20
2019-05-18T18:29:11.062Z,20.10
2019-05-18T18:31:40.345Z,20.10
2019-05-18T18:34:09.675Z,20.00
2019-05-18T18:36:39.199Z,20.00
2019-05-18T18:39:08.963Z,19.90
2019-05-18T18:41:38.276Z,19.80
2019-05-18T18:44:07.590Z,19.70
2019-05-18T18:46:36.864Z,19.70
2019-05-18T18:49:06.278Z,19.60
2019-05-18T18:51:35.552Z,19.50
2019-05-18T18:54:04.836Z,19.40
2019-05-18T18:56:34.158Z,19.30
2019-05-18T18:59:03.453Z,19.30
2019-05-18T19:01:32.779Z,19.20
2019-05-18T19:04:02.206Z,19.10
2019-05-18T19:06:31.522Z,19.00
2019-05-18T19:09:00.818Z,18.90
2019-05-18T19:11:30.241Z,18.90
2019-05-18T19:13:59.591Z,18.80
2019-05-18T19:16:28.982Z,18.70
2019-05-18T19:18:58.379Z,18.60
2019-05-18T19:21:27.700Z,18.60
2019-05-18T19:23:57.049Z,18.60
2019-05-18T19:26:26.379Z,18.40
2019-05-18T19:28:57.149Z,18.40
2019-05-18T19:31:26.513Z,18.30
2019-05-18T19:33:55.838Z,18.20
2019-05-18T19:36:25.177Z,18.10
2019-05-18T19:38:54.610Z,18.10
2019-05-18T19:41:23.931Z,18.00
2019-05-18T19:43:53.257Z,18.00
2019-05-18T19:46:22.555Z,18.00
2019-05-18T19:48:51.984Z,18.10
2019-05-18T19:51:21.534Z,18.10
2019-05-18T19:53:50.893Z,18.10
2019-05-18T19:56:20.180Z,18.10
2019-05-18T19:58:49.582Z,18.20
2019-05-18T20:01:18.906Z,18.20
2019-05-18T20:03:48.243Z,18.20
2019-05-18T20:06:18.095Z,18.30
2019-05-18T20:08:47.465Z,18.30
2019-05-18T20:11:16.736Z,18.30
2019-05-18T20:13:46.379Z,18.20
2019-05-18T20:16:15.663Z,18.20
2019-05-18T20:18:44.966Z,18.20
2019-05-18T20:21:14.280Z,18.10
2019-05-18T20:23:43.625Z,18.10
2019-05-18T20:26:12.920Z,18.00
2019-05-18T20:28:42.406Z,18.00
2019-05-18T20:31:11.775Z,17.90
2019-05-18T20:33:41.087Z,17.80
2019-05-18T20:36:10.391Z,17.80
2019-05-18T20:38:39.672Z,17.80
2019-05-18T20:41:09.041Z,17.70
2019-05-18T20:43:38.369Z,17.70
2019-05-18T20:46:07.647Z,17.70
2019-05-18T20:48:36.936Z,17.70
2019-05-18T20:51:06.334Z,17.70
2019-05-18T20:53:35.644Z,17.70
2019-05-18T20:56:05.041Z,17.70
2019-05-18T20:58:40.057Z,17.60
2019-05-18T21:01:05.537Z,17.60
2019-05-18T21:03:34.935Z,17.60
2019-05-18T21:06:04.303Z,17.60
2019-05-18T21:08:33.594Z,17.50
2019-05-18T21:11:02.922Z,17.40
2019-05-18T21:13:32.210Z,17.40
2019-05-18T21:16:01.490Z,17.30
2019-05-18T21:18:32.723Z,17.20
2019-05-18T21:21:02.011Z,17.30
2019-05-18T21:23:31.416Z,17.20
2019-05-18T21:26:01.010Z,17.20
2019-05-18T21:28:30.327Z,17.30
2019-05-18T21:30:59.658Z,17.20
2019-05-18T21:33:29.013Z,17.20
2019-05-18T21:35:58.333Z,17.20
2019-05-18T21:38:27.679Z,17.20
2019-05-18T21:41:01.455Z,17.20
2019-05-18T21:43:31.014Z,17.20
2019-05-18T21:46:00.350Z,17.20
2019-05-18T21:48:29.655Z,17.20
2019-05-18T21:50:59.065Z,17.20
2019-05-18T21:53:28.426Z,17.20
2019-05-18T21:55:57.917Z,17.20
2019-05-18T21:58:27.692Z,17.20
2019-05-18T22:00:57.178Z,17.20
2019-05-18T22:03:26.623Z,17.20
2019-05-18T22:05:55.967Z,17.20
2019-05-18T22:08:25.239Z,17.20
2019-05-18T22:10:54.566Z,17.10
2019-05-18T22:13:23.875Z,17.10
2019-05-18T22:15:53.214Z,17.10
2019-05-18T22:18:24.882Z,17.10
2019-05-18T22:20:53.523Z,17.10
2019-05-18T22:23:22.870Z,17.00
2019-05-18T22:25:52.349Z,17.00
2019-05-18T22:28:21.734Z,16.90
2019-05-18T22:30:51.034Z,16.90
2019-05-18T22:33:20.371Z,16.90
2019-05-18T22:35:49.742Z,16.80
2019-05-18T22:38:19.125Z,16.80
2019-05-18T22:40:48.426Z,16.80
2019-05-18T22:43:17.693Z,16.80
2019-05-18T22:45:47.006Z,16.70
2019-05-18T22:48:16.314Z,16.70
2019-05-18T22:50:45.645Z,16.70
2019-05-18T22:53:15.155Z,16.60
2019-05-18T22:55:44.450Z,16.50
2019-05-18T22:58:13.740Z,16.50
2019-05-18T23:00:43.197Z,16.50
2019-05-18T23:03:12.627Z,16.50
2019-05-18T23:05:41.923Z,16.50
2019-05-18T23:08:11.369Z,16.50
2019-05-18T23:10:40.719Z,16.50
2019-05-18T23:13:10.114Z,16.40
2019-05-18T23:15:39.474Z,16.40
2019-05-18T23:18:08.867Z,16.40
2019-05-18T23:20:38.247Z,16.40
2019-05-18T23:23:07.615Z,16.30
2019-05-18T23:25:36.973Z,16.30
2019-05-18T23:28:06.330Z,16.30
2019-05-18T23:30:35.607Z,16.30
2019-05-18T23:33:05.169Z,16.30
2019-05-18T23:35:34.910Z,16.30
2019-05-18T23:38:04.159Z,16.20
2019-05-18T23:40:33.525Z,16.10
2019-05-18T23:43:02.818Z,16.00
2019-05-18T23:45:32.151Z,16.00
2019-05-18T23:48:01.463Z,15.90
2019-05-18T23:50:30.806Z,15.90
2019-05-18T23:53:00.217Z,15.80
2019-05-18T23:55:29.569Z,15.80
2019-05-18T23:58:05.116Z,15.70
